sensor_id;sensor_type;location;lat;lon;timestamp;P1;durP1;ratioP1;P2;durP2;ratioP2
69081;SDS011;69029;51.986;5.760;2023-06-22T00:00:58;3.25;;;2.42;;
69081;SDS011;69029;51.986;5.760;2023-06-22T00:03:24;6.85;;;2.80;;
69081;SDS011;69029;51.986;5.760;2023-06-22T00:05:51;5.18;;;2.63;;
69081;SDS011;69029;51.986;5.760;2023-06-22T00:08:17;4.82;;;2.63;;
69081;SDS011;69029;51.986;5.760;2023-06-22T00:10:43;3.90;;;2.72;;
69081;SDS011;69029;51.986;5.760;2023-06-22T00:13:10;5.97;;;2.67;;
69081;SDS011;69029;51.986;5.760;2023-06-22T00:15:36;5.20;;;2.65;;
69081;SDS011;69029;51.986;5.760;2023-06-22T00:18:03;5.20;;;2.78;;
69081;SDS011;69029;51.986;5.760;2023-06-22T00:20:30;6.43;;;2.90;;
69081;SDS011;69029;51.986;5.760;2023-06-22T00:22:56;3.92;;;2.90;;
69081;SDS011;69029;51.986;5.760;2023-06-22T00:25:22;3.92;;;2.60;;
69081;SDS011;69029;51.986;5.760;2023-06-22T00:27:49;6.90;;;2.80;;
69081;SDS011;69029;51.986;5.760;2023-06-22T00:30:15;3.80;;;2.60;;
69081;SDS011;69029;51.986;5.760;2023-06-22T00:32:42;4.38;;;3.15;;
69081;SDS011;69029;51.986;5.760;2023-06-22T00:35:09;3.97;;;3.10;;
69081;SDS011;69029;51.986;5.760;2023-06-22T00:37:35;3.55;;;2.78;;
69081;SDS011;69029;51.986;5.760;2023-06-22T00:40:02;5.10;;;2.90;;
69081;SDS011;69029;51.986;5.760;2023-06-22T00:42:29;5.95;;;2.83;;
69081;SDS011;69029;51.986;5.760;2023-06-22T00:44:55;6.22;;;3.13;;
69081;SDS011;69029;51.986;5.760;2023-06-22T00:47:21;5.38;;;2.90;;
69081;SDS011;69029;51.986;5.760;2023-06-22T00:49:47;9.43;;;3.40;;
69081;SDS011;69029;51.986;5.760;2023-06-22T00:52:16;6.10;;;3.20;;
69081;SDS011;69029;51.986;5.760;2023-06-22T00:54:46;4.70;;;3.20;;
69081;SDS011;69029;51.986;5.760;2023-06-22T00:57:13;4.75;;;3.08;;
69081;SDS011;69029;51.986;5.760;2023-06-22T00:59:43;3.35;;;2.80;;
69081;SDS011;69029;51.986;5.760;2023-06-22T01:02:10;4.63;;;3.20;;
69081;SDS011;69029;51.986;5.760;2023-06-22T01:04:36;5.75;;;3.47;;
69081;SDS011;69029;51.986;5.760;2023-06-22T01:15:35;6.32;;;3.25;;
69081;SDS011;69029;51.986;5.760;2023-06-22T01:18:07;6.60;;;3.20;;
69081;SDS011;69029;51.986;5.760;2023-06-22T01:20:34;3.55;;;3.20;;
69081;SDS011;69029;51.986;5.760;2023-06-22T01:33:44;8.02;;;3.97;;
69081;SDS011;69029;51.986;5.760;2023-06-22T01:36:14;6.00;;;3.70;;
69081;SDS011;69029;51.986;5.760;2023-06-22T01:38:41;5.82;;;4.03;;
69081;SDS011;69029;51.986;5.760;2023-06-22T01:41:08;5.65;;;3.65;;
69081;SDS011;69029;51.986;5.760;2023-06-22T01:43:34;5.15;;;3.58;;
69081;SDS011;69029;51.986;5.760;2023-06-22T01:46:01;5.90;;;3.70;;
69081;SDS011;69029;51.986;5.760;2023-06-22T01:48:27;4.68;;;3.55;;
69081;SDS011;69029;51.986;5.760;2023-06-22T01:50:54;4.65;;;3.88;;
69081;SDS011;69029;51.986;5.760;2023-06-22T01:53:20;6.82;;;3.78;;
69081;SDS011;69029;51.986;5.760;2023-06-22T01:55:47;5.97;;;4.15;;
69081;SDS011;69029;51.986;5.760;2023-06-22T01:58:13;5.38;;;3.88;;
69081;SDS011;69029;51.986;5.760;2023-06-22T02:00:39;4.60;;;4.13;;
69081;SDS011;69029;51.986;5.760;2023-06-22T02:03:17;6.60;;;4.28;;
69081;SDS011;69029;51.986;5.760;2023-06-22T02:05:48;4.75;;;4.25;;
69081;SDS011;69029;51.986;5.760;2023-06-22T02:08:24;12.38;;;4.78;;
69081;SDS011;69029;51.986;5.760;2023-06-22T02:10:53;5.40;;;4.30;;
69081;SDS011;69029;51.986;5.760;2023-06-22T02:13:20;7.72;;;4.63;;
69081;SDS011;69029;51.986;5.760;2023-06-22T02:15:46;7.35;;;4.43;;
69081;SDS011;69029;51.986;5.760;2023-06-22T02:18:13;7.07;;;4.32;;
69081;SDS011;69029;51.986;5.760;2023-06-22T02:20:39;5.60;;;4.32;;
69081;SDS011;69029;51.986;5.760;2023-06-22T02:23:05;7.82;;;4.45;;
69081;SDS011;69029;51.986;5.760;2023-06-22T02:25:32;6.63;;;4.60;;
69081;SDS011;69029;51.986;5.760;2023-06-22T02:27:58;5.28;;;4.18;;
69081;SDS011;69029;51.986;5.760;2023-06-22T02:30:24;7.28;;;4.32;;
69081;SDS011;69029;51.986;5.760;2023-06-22T02:32:49;7.55;;;4.60;;
69081;SDS011;69029;51.986;5.760;2023-06-22T02:35:23;4.30;;;3.88;;
69081;SDS011;69029;51.986;5.760;2023-06-22T02:37:56;6.00;;;4.30;;
69081;SDS011;69029;51.986;5.760;2023-06-22T02:40:25;6.22;;;4.50;;
69081;SDS011;69029;51.986;5.760;2023-06-22T02:42:52;7.90;;;4.93;;
69081;SDS011;69029;51.986;5.760;2023-06-22T02:45:18;6.22;;;4.75;;
69081;SDS011;69029;51.986;5.760;2023-06-22T02:47:43;8.57;;;4.80;;
69081;SDS011;69029;51.986;5.760;2023-06-22T02:50:09;6.70;;;4.60;;
69081;SDS011;69029;51.986;5.760;2023-06-22T02:52:35;5.05;;;4.32;;
69081;SDS011;69029;51.986;5.760;2023-06-22T02:55:01;8.65;;;4.50;;
69081;SDS011;69029;51.986;5.760;2023-06-22T02:57:27;5.90;;;4.40;;
69081;SDS011;69029;51.986;5.760;2023-06-22T02:59:52;6.25;;;4.88;;
69081;SDS011;69029;51.986;5.760;2023-06-22T03:02:18;5.20;;;4.55;;
69081;SDS011;69029;51.986;5.760;2023-06-22T03:04:46;4.63;;;4.07;;
69081;SDS011;69029;51.986;5.760;2023-06-22T03:07:14;8.75;;;4.80;;
69081;SDS011;69029;51.986;5.760;2023-06-22T03:09:40;5.50;;;4.47;;
69081;SDS011;69029;51.986;5.760;2023-06-22T03:12:07;6.47;;;4.57;;
69081;SDS011;69029;51.986;5.760;2023-06-22T03:14:33;6.97;;;4.60;;
69081;SDS011;69029;51.986;5.760;2023-06-22T03:16:59;6.82;;;4.45;;
69081;SDS011;69029;51.986;5.760;2023-06-22T03:19:28;6.45;;;4.50;;
69081;SDS011;69029;51.986;5.760;2023-06-22T03:21:54;5.70;;;4.20;;
69081;SDS011;69029;51.986;5.760;2023-06-22T03:24:20;6.70;;;3.97;;
69081;SDS011;69029;51.986;5.760;2023-06-22T03:26:46;6.75;;;4.32;;
69081;SDS011;69029;51.986;5.760;2023-06-22T03:29:11;6.70;;;4.53;;
69081;SDS011;69029;51.986;5.760;2023-06-22T03:31:37;4.85;;;3.78;;
69081;SDS011;69029;51.986;5.760;2023-06-22T03:34:03;9.20;;;4.63;;
69081;SDS011;69029;51.986;5.760;2023-06-22T03:36:29;5.80;;;4.43;;
69081;SDS011;69029;51.986;5.760;2023-06-22T03:38:55;5.63;;;4.20;;
69081;SDS011;69029;51.986;5.760;2023-06-22T03:41:20;6.15;;;4.90;;
69081;SDS011;69029;51.986;5.760;2023-06-22T03:43:46;6.10;;;4.70;;
69081;SDS011;69029;51.986;5.760;2023-06-22T03:46:12;8.32;;;4.55;;
69081;SDS011;69029;51.986;5.760;2023-06-22T03:48:38;5.28;;;4.18;;
69081;SDS011;69029;51.986;5.760;2023-06-22T03:51:03;7.85;;;4.53;;
69081;SDS011;69029;51.986;5.760;2023-06-22T03:53:29;5.50;;;4.15;;
69081;SDS011;69029;51.986;5.760;2023-06-22T03:55:55;9.73;;;4.95;;
69081;SDS011;69029;51.986;5.760;2023-06-22T03:58:21;7.35;;;4.80;;
69081;SDS011;69029;51.986;5.760;2023-06-22T04:00:47;5.57;;;4.93;;
69081;SDS011;69029;51.986;5.760;2023-06-22T04:03:14;6.00;;;4.60;;
69081;SDS011;69029;51.986;5.760;2023-06-22T04:05:40;7.88;;;4.72;;
69081;SDS011;69029;51.986;5.760;2023-06-22T04:08:06;5.88;;;4.47;;
69081;SDS011;69029;51.986;5.760;2023-06-22T04:10:32;6.40;;;4.70;;
69081;SDS011;69029;51.986;5.760;2023-06-22T04:12:58;8.18;;;5.10;;
69081;SDS011;69029;51.986;5.760;2023-06-22T04:15:24;6.95;;;5.80;;
69081;SDS011;69029;51.986;5.760;2023-06-22T04:17:49;6.47;;;5.38;;
69081;SDS011;69029;51.986;5.760;2023-06-22T04:20:15;8.27;;;5.72;;
69081;SDS011;69029;51.986;5.760;2023-06-22T04:22:41;10.27;;;5.97;;
69081;SDS011;69029;51.986;5.760;2023-06-22T04:25:06;8.88;;;5.70;;
69081;SDS011;69029;51.986;5.760;2023-06-22T04:27:32;10.50;;;5.95;;
69081;SDS011;69029;51.986;5.760;2023-06-22T04:30:05;12.97;;;6.07;;
69081;SDS011;69029;51.986;5.760;2023-06-22T04:32:32;8.45;;;6.00;;
69081;SDS011;69029;51.986;5.760;2023-06-22T04:35:04;7.23;;;5.40;;
69081;SDS011;69029;51.986;5.760;2023-06-22T04:37:31;8.18;;;5.72;;
69081;SDS011;69029;51.986;5.760;2023-06-22T04:39:57;10.23;;;5.90;;
69081;SDS011;69029;51.986;5.760;2023-06-22T04:42:23;8.80;;;6.25;;
69081;SDS011;69029;51.986;5.760;2023-06-22T04:44:51;9.38;;;6.03;;
69081;SDS011;69029;51.986;5.760;2023-06-22T04:47:16;11.35;;;6.32;;
69081;SDS011;69029;51.986;5.760;2023-06-22T04:49:42;8.45;;;6.10;;
69081;SDS011;69029;51.986;5.760;2023-06-22T04:52:08;11.88;;;6.18;;
69081;SDS011;69029;51.986;5.760;2023-06-22T04:54:37;9.43;;;6.63;;
69081;SDS011;69029;51.986;5.760;2023-06-22T04:57:05;10.23;;;5.93;;
69081;SDS011;69029;51.986;5.760;2023-06-22T04:59:35;8.82;;;6.53;;
69081;SDS011;69029;51.986;5.760;2023-06-22T05:02:04;9.18;;;6.15;;
69081;SDS011;69029;51.986;5.760;2023-06-22T05:04:31;9.68;;;6.28;;
69081;SDS011;69029;51.986;5.760;2023-06-22T05:06:57;12.32;;;6.88;;
69081;SDS011;69029;51.986;5.760;2023-06-22T05:09:24;11.98;;;6.78;;
69081;SDS011;69029;51.986;5.760;2023-06-22T05:11:50;11.52;;;7.78;;
69081;SDS011;69029;51.986;5.760;2023-06-22T05:14:19;16.75;;;9.18;;
69081;SDS011;69029;51.986;5.760;2023-06-22T05:16:45;15.75;;;9.60;;
69081;SDS011;69029;51.986;5.760;2023-06-22T05:19:11;14.82;;;9.82;;
69081;SDS011;69029;51.986;5.760;2023-06-22T05:21:37;19.35;;;10.05;;
69081;SDS011;69029;51.986;5.760;2023-06-22T05:24:03;16.48;;;10.77;;
69081;SDS011;69029;51.986;5.760;2023-06-22T05:26:30;19.00;;;12.00;;
69081;SDS011;69029;51.986;5.760;2023-06-22T05:28:56;18.63;;;12.15;;
69081;SDS011;69029;51.986;5.760;2023-06-22T05:31:23;20.70;;;13.38;;
69081;SDS011;69029;51.986;5.760;2023-06-22T05:33:51;23.02;;;13.85;;
69081;SDS011;69029;51.986;5.760;2023-06-22T05:36:17;19.45;;;14.13;;
69081;SDS011;69029;51.986;5.760;2023-06-22T05:38:46;21.15;;;14.48;;
69081;SDS011;69029;51.986;5.760;2023-06-22T05:41:12;23.35;;;15.73;;
69081;SDS011;69029;51.986;5.760;2023-06-22T05:43:39;20.73;;;14.25;;
69081;SDS011;69029;51.986;5.760;2023-06-22T05:46:04;21.00;;;13.90;;
69081;SDS011;69029;51.986;5.760;2023-06-22T05:48:30;26.58;;;15.57;;
69081;SDS011;69029;51.986;5.760;2023-06-22T05:50:56;27.85;;;15.15;;
69081;SDS011;69029;51.986;5.760;2023-06-22T05:53:22;20.33;;;15.23;;
69081;SDS011;69029;51.986;5.760;2023-06-22T05:55:48;20.98;;;14.93;;
69081;SDS011;69029;51.986;5.760;2023-06-22T05:58:13;22.80;;;15.15;;
69081;SDS011;69029;51.986;5.760;2023-06-22T06:00:39;20.23;;;15.25;;
69081;SDS011;69029;51.986;5.760;2023-06-22T06:03:08;19.80;;;14.70;;
69081;SDS011;69029;51.986;5.760;2023-06-22T06:05:35;23.08;;;14.73;;
69081;SDS011;69029;51.986;5.760;2023-06-22T06:08:02;20.48;;;14.07;;
69081;SDS011;69029;51.986;5.760;2023-06-22T06:10:32;20.50;;;13.18;;
69081;SDS011;69029;51.986;5.760;2023-06-22T06:12:58;18.67;;;13.25;;
69081;SDS011;69029;51.986;5.760;2023-06-22T06:15:27;20.08;;;13.50;;
69081;SDS011;69029;51.986;5.760;2023-06-22T06:17:53;22.85;;;13.02;;
69081;SDS011;69029;51.986;5.760;2023-06-22T06:20:19;17.13;;;12.45;;
69081;SDS011;69029;51.986;5.760;2023-06-22T06:22:47;16.10;;;11.38;;
69081;SDS011;69029;51.986;5.760;2023-06-22T06:25:13;17.02;;;11.48;;
69081;SDS011;69029;51.986;5.760;2023-06-22T06:27:42;16.65;;;12.00;;
69081;SDS011;69029;51.986;5.760;2023-06-22T06:30:09;18.27;;;11.93;;
69081;SDS011;69029;51.986;5.760;2023-06-22T06:32:36;16.48;;;11.60;;
69081;SDS011;69029;51.986;5.760;2023-06-22T06:35:02;15.70;;;11.00;;
69081;SDS011;69029;51.986;5.760;2023-06-22T06:37:27;15.75;;;11.18;;
69081;SDS011;69029;51.986;5.760;2023-06-22T06:39:53;12.25;;;9.45;;
69081;SDS011;69029;51.986;5.760;2023-06-22T06:42:18;14.85;;;10.40;;
69081;SDS011;69029;51.986;5.760;2023-06-22T06:44:44;14.05;;;9.75;;
69081;SDS011;69029;51.986;5.760;2023-06-22T06:47:10;13.98;;;9.85;;
69081;SDS011;69029;51.986;5.760;2023-06-22T06:49:36;14.88;;;9.80;;
69081;SDS011;69029;51.986;5.760;2023-06-22T06:52:01;13.43;;;8.45;;
69081;SDS011;69029;51.986;5.760;2023-06-22T06:54:27;15.32;;;9.15;;
69081;SDS011;69029;51.986;5.760;2023-06-22T06:56:53;15.93;;;8.57;;
69081;SDS011;69029;51.986;5.760;2023-06-22T06:59:18;11.20;;;7.80;;
69081;SDS011;69029;51.986;5.760;2023-06-22T07:01:44;10.50;;;7.85;;
69081;SDS011;69029;51.986;5.760;2023-06-22T07:04:10;12.48;;;7.60;;
69081;SDS011;69029;51.986;5.760;2023-06-22T07:06:35;9.05;;;6.80;;
69081;SDS011;69029;51.986;5.760;2023-06-22T07:09:01;10.57;;;6.57;;
69081;SDS011;69029;51.986;5.760;2023-06-22T07:11:28;10.82;;;7.10;;
69081;SDS011;69029;51.986;5.760;2023-06-22T07:13:54;9.38;;;6.30;;
69081;SDS011;69029;51.986;5.760;2023-06-22T07:16:19;7.53;;;5.60;;
69081;SDS011;69029;51.986;5.760;2023-06-22T07:18:45;8.95;;;6.57;;
69081;SDS011;69029;51.986;5.760;2023-06-22T07:21:11;8.55;;;5.53;;
69081;SDS011;69029;51.986;5.760;2023-06-22T07:23:36;8.70;;;6.22;;
69081;SDS011;69029;51.986;5.760;2023-06-22T07:26:02;9.35;;;5.70;;
69081;SDS011;69029;51.986;5.760;2023-06-22T07:28:28;8.85;;;5.82;;
69081;SDS011;69029;51.986;5.760;2023-06-22T07:30:56;9.15;;;4.70;;
69081;SDS011;69029;51.986;5.760;2023-06-22T07:33:22;11.30;;;5.63;;
69081;SDS011;69029;51.986;5.760;2023-06-22T07:35:47;10.55;;;5.45;;
69081;SDS011;69029;51.986;5.760;2023-06-22T07:38:13;7.68;;;5.30;;
69081;SDS011;69029;51.986;5.760;2023-06-22T07:40:40;9.38;;;5.22;;
69081;SDS011;69029;51.986;5.760;2023-06-22T07:43:06;7.15;;;4.68;;
69081;SDS011;69029;51.986;5.760;2023-06-22T07:45:32;7.40;;;4.95;;
69081;SDS011;69029;51.986;5.760;2023-06-22T07:47:59;9.60;;;5.68;;
69081;SDS011;69029;51.986;5.760;2023-06-22T07:50:25;8.55;;;4.80;;
69081;SDS011;69029;51.986;5.760;2023-06-22T07:52:51;10.60;;;5.70;;
69081;SDS011;69029;51.986;5.760;2023-06-22T07:55:18;9.60;;;5.85;;
69081;SDS011;69029;51.986;5.760;2023-06-22T07:57:43;9.02;;;5.60;;
69081;SDS011;69029;51.986;5.760;2023-06-22T08:00:12;8.38;;;5.55;;
69081;SDS011;69029;51.986;5.760;2023-06-22T08:02:40;7.50;;;5.50;;
69081;SDS011;69029;51.986;5.760;2023-06-22T08:05:06;7.97;;;5.00;;
69081;SDS011;69029;51.986;5.760;2023-06-22T08:07:36;8.00;;;5.00;;
69081;SDS011;69029;51.986;5.760;2023-06-22T08:10:03;11.57;;;4.95;;
69081;SDS011;69029;51.986;5.760;2023-06-22T08:12:29;8.27;;;4.30;;
69081;SDS011;69029;51.986;5.760;2023-06-22T08:14:55;6.28;;;4.25;;
69081;SDS011;69029;51.986;5.760;2023-06-22T08:17:22;6.80;;;5.10;;
69081;SDS011;69029;51.986;5.760;2023-06-22T08:19:48;8.25;;;4.82;;
69081;SDS011;69029;51.986;5.760;2023-06-22T08:22:13;9.05;;;4.85;;
69081;SDS011;69029;51.986;5.760;2023-06-22T08:24:40;6.65;;;5.20;;
69081;SDS011;69029;51.986;5.760;2023-06-22T08:27:07;7.13;;;4.57;;
69081;SDS011;69029;51.986;5.760;2023-06-22T08:29:39;7.38;;;4.70;;
69081;SDS011;69029;51.986;5.760;2023-06-22T08:32:08;7.75;;;4.53;;
69081;SDS011;69029;51.986;5.760;2023-06-22T08:34:35;7.38;;;4.40;;
69081;SDS011;69029;51.986;5.760;2023-06-22T08:37:01;11.23;;;3.88;;
69081;SDS011;69029;51.986;5.760;2023-06-22T08:39:31;8.80;;;4.50;;
69081;SDS011;69029;51.986;5.760;2023-06-22T08:41:57;5.47;;;3.83;;
69081;SDS011;69029;51.986;5.760;2023-06-22T08:44:22;5.30;;;3.42;;
69081;SDS011;69029;51.986;5.760;2023-06-22T08:46:48;5.05;;;3.38;;
69081;SDS011;69029;51.986;5.760;2023-06-22T08:49:14;7.80;;;3.33;;
69081;SDS011;69029;51.986;5.760;2023-06-22T08:51:40;5.72;;;3.85;;
69081;SDS011;69029;51.986;5.760;2023-06-22T08:54:06;4.65;;;3.42;;
69081;SDS011;69029;51.986;5.760;2023-06-22T08:56:32;7.40;;;3.63;;
69081;SDS011;69029;51.986;5.760;2023-06-22T08:58:58;10.20;;;3.63;;
69081;SDS011;69029;51.986;5.760;2023-06-22T09:01:23;3.80;;;3.38;;
69081;SDS011;69029;51.986;5.760;2023-06-22T09:03:49;4.57;;;3.00;;
69081;SDS011;69029;51.986;5.760;2023-06-22T09:06:20;5.03;;;3.08;;
69081;SDS011;69029;51.986;5.760;2023-06-22T09:08:46;6.18;;;2.95;;
69081;SDS011;69029;51.986;5.760;2023-06-22T09:11:12;8.45;;;2.72;;
69081;SDS011;69029;51.986;5.760;2023-06-22T09:13:38;4.60;;;3.00;;
69081;SDS011;69029;51.986;5.760;2023-06-22T09:16:03;4.03;;;2.63;;
69081;SDS011;69029;51.986;5.760;2023-06-22T09:18:29;3.45;;;2.58;;
69081;SDS011;69029;51.986;5.760;2023-06-22T09:20:56;3.95;;;2.53;;
69081;SDS011;69029;51.986;5.760;2023-06-22T09:23:21;4.10;;;2.47;;
69081;SDS011;69029;51.986;5.760;2023-06-22T09:25:47;5.53;;;2.50;;
69081;SDS011;69029;51.986;5.760;2023-06-22T09:28:13;4.85;;;3.05;;
69081;SDS011;69029;51.986;5.760;2023-06-22T09:30:39;3.55;;;2.83;;
69081;SDS011;69029;51.986;5.760;2023-06-22T09:33:05;3.00;;;2.45;;
69081;SDS011;69029;51.986;5.760;2023-06-22T09:35:30;5.47;;;2.92;;
69081;SDS011;69029;51.986;5.760;2023-06-22T09:37:56;4.82;;;2.40;;
69081;SDS011;69029;51.986;5.760;2023-06-22T09:40:21;5.40;;;2.60;;
69081;SDS011;69029;51.986;5.760;2023-06-22T09:42:47;6.93;;;2.47;;
69081;SDS011;69029;51.986;5.760;2023-06-22T09:45:13;4.30;;;2.25;;
69081;SDS011;69029;51.986;5.760;2023-06-22T09:47:38;4.93;;;2.53;;
69081;SDS011;69029;51.986;5.760;2023-06-22T09:50:04;4.85;;;3.00;;
69081;SDS011;69029;51.986;5.760;2023-06-22T09:52:31;3.50;;;2.80;;
69081;SDS011;69029;51.986;5.760;2023-06-22T09:54:56;6.28;;;2.90;;
69081;SDS011;69029;51.986;5.760;2023-06-22T09:57:22;8.05;;;3.33;;
69081;SDS011;69029;51.986;5.760;2023-06-22T09:59:47;5.47;;;2.67;;
69081;SDS011;69029;51.986;5.760;2023-06-22T10:02:13;5.65;;;3.05;;
69081;SDS011;69029;51.986;5.760;2023-06-22T10:04:39;6.53;;;2.70;;
69081;SDS011;69029;51.986;5.760;2023-06-22T10:07:05;4.80;;;2.75;;
69081;SDS011;69029;51.986;5.760;2023-06-22T10:09:31;4.18;;;2.70;;
69081;SDS011;69029;51.986;5.760;2023-06-22T10:11:56;3.13;;;2.83;;
69081;SDS011;69029;51.986;5.760;2023-06-22T10:14:22;6.03;;;3.40;;
69081;SDS011;69029;51.986;5.760;2023-06-22T10:16:49;7.22;;;2.90;;
69081;SDS011;69029;51.986;5.760;2023-06-22T10:19:16;4.38;;;3.28;;
69081;SDS011;69029;51.986;5.760;2023-06-22T10:21:44;4.03;;;3.35;;
69081;SDS011;69029;51.986;5.760;2023-06-22T10:24:10;5.03;;;3.10;;
69081;SDS011;69029;51.986;5.760;2023-06-22T10:26:35;3.53;;;3.10;;
69081;SDS011;69029;51.986;5.760;2023-06-22T10:29:03;4.15;;;3.15;;
69081;SDS011;69029;51.986;5.760;2023-06-22T10:31:28;8.40;;;3.10;;
69081;SDS011;69029;51.986;5.760;2023-06-22T10:33:54;4.10;;;2.80;;
69081;SDS011;69029;51.986;5.760;2023-06-22T10:36:23;5.43;;;3.20;;
69081;SDS011;69029;51.986;5.760;2023-06-22T10:38:49;4.20;;;2.83;;
69081;SDS011;69029;51.986;5.760;2023-06-22T10:41:14;7.20;;;3.33;;
69081;SDS011;69029;51.986;5.760;2023-06-22T10:43:41;5.07;;;3.33;;
69081;SDS011;69029;51.986;5.760;2023-06-22T10:46:07;5.10;;;2.90;;
69081;SDS011;69029;51.986;5.760;2023-06-22T10:48:34;5.25;;;2.80;;
69081;SDS011;69029;51.986;5.760;2023-06-22T10:51:00;14.10;;;3.08;;
69081;SDS011;69029;51.986;5.760;2023-06-22T10:53:25;4.15;;;3.42;;
69081;SDS011;69029;51.986;5.760;2023-06-22T10:55:51;3.78;;;2.95;;
69081;SDS011;69029;51.986;5.760;2023-06-22T10:58:18;6.47;;;3.67;;
69081;SDS011;69029;51.986;5.760;2023-06-22T11:00:44;4.72;;;3.00;;
69081;SDS011;69029;51.986;5.760;2023-06-22T11:03:10;10.20;;;3.60;;
69081;SDS011;69029;51.986;5.760;2023-06-22T11:05:37;6.72;;;3.40;;
69081;SDS011;69029;51.986;5.760;2023-06-22T11:08:02;4.57;;;3.38;;
69081;SDS011;69029;51.986;5.760;2023-06-22T11:10:28;4.65;;;3.65;;
69081;SDS011;69029;51.986;5.760;2023-06-22T11:12:53;7.00;;;3.88;;
69081;SDS011;69029;51.986;5.760;2023-06-22T11:15:20;8.90;;;3.65;;
69081;SDS011;69029;51.986;5.760;2023-06-22T11:17:46;6.15;;;3.90;;
69081;SDS011;69029;51.986;5.760;2023-06-22T11:20:11;5.32;;;3.75;;
69081;SDS011;69029;51.986;5.760;2023-06-22T11:22:38;6.03;;;3.75;;
69081;SDS011;69029;51.986;5.760;2023-06-22T11:25:04;5.93;;;3.55;;
69081;SDS011;69029;51.986;5.760;2023-06-22T11:27:30;4.78;;;3.63;;
69081;SDS011;69029;51.986;5.760;2023-06-22T11:29:56;5.95;;;3.72;;
69081;SDS011;69029;51.986;5.760;2023-06-22T11:32:22;8.55;;;3.97;;
69081;SDS011;69029;51.986;5.760;2023-06-22T11:34:48;5.80;;;3.70;;
69081;SDS011;69029;51.986;5.760;2023-06-22T11:37:14;5.72;;;3.95;;
69081;SDS011;69029;51.986;5.760;2023-06-22T11:39:40;6.00;;;3.83;;
69081;SDS011;69029;51.986;5.760;2023-06-22T11:42:06;5.13;;;3.90;;
69081;SDS011;69029;51.986;5.760;2023-06-22T11:44:33;5.13;;;3.92;;
69081;SDS011;69029;51.986;5.760;2023-06-22T11:46:58;4.38;;;3.55;;
69081;SDS011;69029;51.986;5.760;2023-06-22T11:49:25;4.22;;;3.67;;
69081;SDS011;69029;51.986;5.760;2023-06-22T11:51:52;7.10;;;3.30;;
69081;SDS011;69029;51.986;5.760;2023-06-22T11:54:17;5.70;;;3.33;;
69081;SDS011;69029;51.986;5.760;2023-06-22T11:56:43;5.22;;;3.70;;
69081;SDS011;69029;51.986;5.760;2023-06-22T11:59:09;6.97;;;3.60;;
69081;SDS011;69029;51.986;5.760;2023-06-22T12:01:34;6.35;;;3.80;;
69081;SDS011;69029;51.986;5.760;2023-06-22T12:04:00;6.32;;;4.38;;
69081;SDS011;69029;51.986;5.760;2023-06-22T12:06:26;7.15;;;4.32;;
69081;SDS011;69029;51.986;5.760;2023-06-22T12:08:51;6.20;;;4.30;;
69081;SDS011;69029;51.986;5.760;2023-06-22T12:11:17;6.15;;;3.80;;
69081;SDS011;69029;51.986;5.760;2023-06-22T12:13:43;7.60;;;4.20;;
69081;SDS011;69029;51.986;5.760;2023-06-22T12:16:08;5.80;;;4.70;;
69081;SDS011;69029;51.986;5.760;2023-06-22T12:18:34;6.45;;;4.35;;
69081;SDS011;69029;51.986;5.760;2023-06-22T12:21:00;15.25;;;5.30;;
69081;SDS011;69029;51.986;5.760;2023-06-22T12:23:26;10.45;;;4.65;;
69081;SDS011;69029;51.986;5.760;2023-06-22T12:25:51;8.00;;;4.95;;
69081;SDS011;69029;51.986;5.760;2023-06-22T12:28:17;9.05;;;5.40;;
69081;SDS011;69029;51.986;5.760;2023-06-22T12:30:42;5.97;;;4.93;;
69081;SDS011;69029;51.986;5.760;2023-06-22T12:33:08;5.75;;;4.82;;
69081;SDS011;69029;51.986;5.760;2023-06-22T12:35:34;9.27;;;4.80;;
69081;SDS011;69029;51.986;5.760;2023-06-22T12:38:00;6.82;;;4.82;;
69081;SDS011;69029;51.986;5.760;2023-06-22T12:40:26;8.38;;;5.30;;
69081;SDS011;69029;51.986;5.760;2023-06-22T12:42:51;7.95;;;4.95;;
69081;SDS011;69029;51.986;5.760;2023-06-22T12:45:17;8.48;;;4.93;;
69081;SDS011;69029;51.986;5.760;2023-06-22T12:47:43;8.80;;;6.32;;
69081;SDS011;69029;51.986;5.760;2023-06-22T12:50:09;11.43;;;6.60;;
69081;SDS011;69029;51.986;5.760;2023-06-22T12:52:36;10.73;;;6.28;;
69081;SDS011;69029;51.986;5.760;2023-06-22T12:55:04;8.27;;;6.13;;
69081;SDS011;69029;51.986;5.760;2023-06-22T12:57:30;9.20;;;6.18;;
69081;SDS011;69029;51.986;5.760;2023-06-22T12:59:56;8.18;;;5.97;;
69081;SDS011;69029;51.986;5.760;2023-06-22T13:02:23;9.35;;;5.97;;
69081;SDS011;69029;51.986;5.760;2023-06-22T13:04:55;14.40;;;5.68;;
69081;SDS011;69029;51.986;5.760;2023-06-22T13:07:20;10.60;;;6.30;;
69081;SDS011;69029;51.986;5.760;2023-06-22T13:09:46;8.13;;;6.07;;
69081;SDS011;69029;51.986;5.760;2023-06-22T13:12:16;8.60;;;5.72;;
69081;SDS011;69029;51.986;5.760;2023-06-22T13:14:41;9.43;;;5.90;;
69081;SDS011;69029;51.986;5.760;2023-06-22T13:17:08;10.60;;;6.18;;
69081;SDS011;69029;51.986;5.760;2023-06-22T13:19:34;9.45;;;6.68;;
69081;SDS011;69029;51.986;5.760;2023-06-22T13:22:00;10.30;;;7.57;;
69081;SDS011;69029;51.986;5.760;2023-06-22T13:24:25;11.10;;;6.82;;
69081;SDS011;69029;51.986;5.760;2023-06-22T13:26:51;8.98;;;6.30;;
69081;SDS011;69029;51.986;5.760;2023-06-22T13:29:17;10.90;;;7.13;;
69081;SDS011;69029;51.986;5.760;2023-06-22T13:31:42;21.52;;;8.27;;
69081;SDS011;69029;51.986;5.760;2023-06-22T13:34:08;10.73;;;8.70;;
69081;SDS011;69029;51.986;5.760;2023-06-22T13:36:33;13.35;;;7.63;;
69081;SDS011;69029;51.986;5.760;2023-06-22T13:38:59;9.85;;;6.57;;
69081;SDS011;69029;51.986;5.760;2023-06-22T13:41:25;13.52;;;8.68;;
69081;SDS011;69029;51.986;5.760;2023-06-22T13:43:50;12.32;;;8.70;;
69081;SDS011;69029;51.986;5.760;2023-06-22T13:46:16;11.82;;;8.57;;
69081;SDS011;69029;51.986;5.760;2023-06-22T13:48:42;10.32;;;8.85;;
69081;SDS011;69029;51.986;5.760;2023-06-22T13:51:07;12.45;;;8.80;;
69081;SDS011;69029;51.986;5.760;2023-06-22T13:53:33;15.25;;;10.13;;
69081;SDS011;69029;51.986;5.760;2023-06-22T13:55:59;13.48;;;9.85;;
69081;SDS011;69029;51.986;5.760;2023-06-22T13:58:24;17.45;;;11.27;;
69081;SDS011;69029;51.986;5.760;2023-06-22T14:00:50;14.15;;;10.07;;
69081;SDS011;69029;51.986;5.760;2023-06-22T14:03:15;14.18;;;10.02;;
69081;SDS011;69029;51.986;5.760;2023-06-22T14:05:41;15.02;;;11.18;;
69081;SDS011;69029;51.986;5.760;2023-06-22T14:08:08;12.95;;;9.85;;
69081;SDS011;69029;51.986;5.760;2023-06-22T14:10:34;14.05;;;10.40;;
69081;SDS011;69029;51.986;5.760;2023-06-22T14:13:00;17.13;;;10.75;;
69081;SDS011;69029;51.986;5.760;2023-06-22T14:15:25;12.35;;;9.02;;
69081;SDS011;69029;51.986;5.760;2023-06-22T14:17:51;13.88;;;8.80;;
69081;SDS011;69029;51.986;5.760;2023-06-22T14:20:24;10.98;;;8.68;;
69081;SDS011;69029;51.986;5.760;2023-06-22T14:22:50;13.63;;;9.57;;
69081;SDS011;69029;51.986;5.760;2023-06-22T14:25:24;12.50;;;8.43;;
69081;SDS011;69029;51.986;5.760;2023-06-22T14:27:50;11.43;;;8.65;;
69081;SDS011;69029;51.986;5.760;2023-06-22T14:30:16;14.38;;;7.90;;
69081;SDS011;69029;51.986;5.760;2023-06-22T14:32:43;10.15;;;7.68;;
69081;SDS011;69029;51.986;5.760;2023-06-22T14:35:10;11.25;;;7.75;;
69081;SDS011;69029;51.986;5.760;2023-06-22T14:37:36;15.75;;;8.90;;
69081;SDS011;69029;51.986;5.760;2023-06-22T14:40:01;15.00;;;8.35;;
69081;SDS011;69029;51.986;5.760;2023-06-22T14:42:27;13.18;;;7.95;;
69081;SDS011;69029;51.986;5.760;2023-06-22T14:44:55;10.57;;;7.88;;
69081;SDS011;69029;51.986;5.760;2023-06-22T14:47:20;10.80;;;8.90;;
69081;SDS011;69029;51.986;5.760;2023-06-22T14:49:47;10.38;;;8.07;;
69081;SDS011;69029;51.986;5.760;2023-06-22T14:52:13;11.75;;;9.70;;
69081;SDS011;69029;51.986;5.760;2023-06-22T14:54:39;9.70;;;7.82;;
69081;SDS011;69029;51.986;5.760;2023-06-22T14:57:04;11.50;;;9.20;;